Sargents School, Colorado
Current Conditions -  °F | °C
As of 9:10 PM on Wednesday 26 Nov 2014 (Local Time) from KRCV Reporting Station
Clear Clear  
Wind Chill: 18°   Ceiling: Unl
Heat Index: 27°   Visibility: 10mi
Dew Point: 13°   Wind: 8mph
Humidity: 56%   Direction: 260°W
Pressure: 30.44"   Gusts: NA
Location:  37.5196°N, 106.176°W
Report Text: KRCV 270410Z AUTO 26007KT 10SM CLR M03/M10 A3044 RMK AO2 T10291105
Loading
Personal Weather Stations






























Interactive Weather Map New forecast layout! Learn more

10-Day Weather Forecast

Advertisements
Track Severe Weather on mobile